Time;durP1;ratioP1;P1;durP2;ratioP2;P2;SDS_P1;SDS_P2;PMS_P1;PMS_P2;Temp;Humidity;BMP_temperature;BMP_pressure;BME280_temperature;BME280_humidity;BME280_pressure;Samples;Min_cycle;Max_cycle;Signal;HPM_P1;HPM_P2
2022/02/10 00:18:47;;;;;;;41.03;29.70;;;10.00;88.60;;;;;;5027733;28;20467;-64
2022/02/10 00:21:23;;;;;;;43.80;29.38;;;10.00;88.70;;;;;;5038867;28;20036;-65
2022/02/10 00:34:48;;;;;;;38.65;29.65;;;9.90;88.90;;;;;;5046238;28;20047;-65
2022/02/10 00:37:23;;;;;;;38.50;29.17;;;9.90;88.80;;;;;;5029275;28;20049;-65
2022/02/10 00:40:11;;;;;;;40.63;28.52;;;9.90;88.80;;;;;;5030684;28;20029;-65
2022/02/10 00:42:36;;;;;;;36.75;28.35;;;9.90;88.70;;;;;;5042930;28;20406;-65
2022/02/10 00:45:03;;;;;;;34.75;27.52;;;9.90;88.60;;;;;;5047922;28;20037;-65
2022/02/10 00:47:32;;;;;;;43.97;29.77;;;9.90;88.50;;;;;;5038021;28;20399;-65
2022/02/10 00:50:00;;;;;;;38.53;27.70;;;9.90;88.20;;;;;;5030579;28;20039;-65
2022/02/10 00:52:25;;;;;;;34.97;26.73;;;9.90;88.20;;;;;;5029287;28;20063;-65
2022/02/10 00:54:51;;;;;;;37.25;27.10;;;9.90;88.20;;;;;;5041735;28;20025;-65
2022/02/10 00:57:20;;;;;;;34.40;26.80;;;10.00;88.10;;;;;;5041611;28;20099;-65
2022/02/10 01:06:59;;;;;;;30.65;24.20;;;9.90;87.90;;;;;;5043629;28;20044;-65
2022/02/10 01:10:39;;;;;;;29.10;22.20;;;10.00;87.80;;;;;;5033973;28;20046;-64
2022/02/10 01:31:55;;;;;;;26.08;20.30;;;9.90;87.30;;;;;;5015009;28;20095;-64
2022/02/10 01:34:20;;;;;;;27.45;21.65;;;10.00;87.40;;;;;;5029166;28;20038;-65
2022/02/10 01:36:46;;;;;;;27.17;20.85;;;10.00;87.20;;;;;;5028535;28;20138;-64
2022/02/10 01:39:12;;;;;;;25.77;20.42;;;10.00;87.20;;;;;;5029492;28;20504;-64
2022/02/10 01:58:36;;;;;;;25.52;18.10;;;9.90;86.70;;;;;;5033045;28;20117;-64
2022/02/10 02:03:48;;;;;;;22.85;17.98;;;9.90;86.50;;;;;;5028283;28;20729;-64
2022/02/10 02:06:22;;;;;;;24.23;16.98;;;9.90;86.40;;;;;;5044649;28;20127;-64
2022/02/10 02:08:48;;;;;;;23.23;17.42;;;9.90;86.30;;;;;;5031583;28;20099;-64
2022/02/10 02:11:14;;;;;;;21.70;16.90;;;9.90;86.10;;;;;;5037861;28;20029;-64
2022/02/10 02:13:39;;;;;;;22.10;17.35;;;9.90;86.20;;;;;;5045285;28;20037;-64
2022/02/10 02:16:05;;;;;;;20.88;16.55;;;9.90;86.20;;;;;;5031568;28;20037;-64
2022/02/10 02:18:31;;;;;;;18.75;15.38;;;9.90;86.20;;;;;;5033760;28;20131;-65
2022/02/10 02:20:59;;;;;;;18.80;15.40;;;9.90;86.20;;;;;;5036313;28;20024;-65
2022/02/10 02:23:28;;;;;;;19.38;15.68;;;9.90;86.20;;;;;;5048830;28;20041;-65
2022/02/10 02:26:00;;;;;;;19.83;14.90;;;9.90;86.10;;;;;;5041198;28;20398;-65
2022/02/10 02:28:27;;;;;;;19.20;15.13;;;9.90;86.10;;;;;;5051149;28;20280;-65
2022/02/10 02:31:03;;;;;;;19.17;15.57;;;9.90;86.10;;;;;;5033949;28;20033;-65
2022/02/10 02:39:23;;;;;;;16.45;14.00;;;9.90;85.90;;;;;;5031787;28;20044;-64
2022/02/10 03:08:47;;;;;;;17.02;14.68;;;9.80;85.50;;;;;;5020247;28;20033;-64
2022/02/10 03:11:14;;;;;;;20.08;15.82;;;9.90;85.50;;;;;;5035297;28;20041;-64
2022/02/10 03:13:54;;;;;;;17.20;13.80;;;9.90;85.30;;;;;;5047416;28;20125;-64
2022/02/10 04:03:00;;;;;;;21.23;15.38;;;9.90;85.30;;;;;;5009900;28;20061;-64
2022/02/10 04:06:01;;;;;;;;;;;9.80;85.10;;;;;;5043799;28;20029;-64
2022/02/10 04:13:56;;;;;;;20.95;16.38;;;9.80;85.30;;;;;;5030312;28;20134;-64
2022/02/10 04:16:27;;;;;;;23.50;16.15;;;9.80;85.30;;;;;;5029652;28;20045;-64
2022/02/10 04:53:21;;;;;;;25.80;19.27;;;9.70;85.60;;;;;;5043716;28;20457;-64
2022/02/10 05:35:34;;;;;;;21.63;17.77;;;9.60;85.40;;;;;;5052584;28;20044;-64
2022/02/10 05:38:10;;;;;;;23.33;19.13;;;9.60;85.50;;;;;;5043180;28;20046;-65
2022/02/10 05:48:56;;;;;;;29.70;20.98;;;9.60;85.40;;;;;;5030570;28;20075;-64
2022/02/10 05:54:30;;;;;;;24.13;20.38;;;9.60;85.50;;;;;;5043711;28;20053;-64
2022/02/10 05:57:13;;;;;;;27.13;19.63;;;9.50;85.50;;;;;;5033261;28;20496;-65
2022/02/10 06:02:55;;;;;;;24.77;20.05;;;9.60;85.60;;;;;;5030442;28;20072;-65
2022/02/10 06:38:53;;;;;;;28.08;21.50;;;9.60;85.50;;;;;;5029629;28;20526;-65
2022/02/10 06:51:32;;;;;;;31.92;24.70;;;9.40;86.80;;;;;;5031907;28;20033;-65
2022/02/10 10:02:37;;;;;;;5.18;1.30;;;9.20;83.10;;;;;;5028299;28;20071;-64
2022/02/10 10:49:47;;;;;;;3.45;1.67;;;9.80;81.20;;;;;;5029998;28;20321;-66
2022/02/10 10:55:10;;;;;;;6.45;2.15;;;9.90;80.00;;;;;;5029743;28;20041;-66
2022/02/10 10:57:39;;;;;;;7.43;1.67;;;9.90;80.20;;;;;;5035101;28;20033;-66
2022/02/10 11:00:27;;;;;;;5.10;1.70;;;9.90;80.40;;;;;;5046857;28;20396;-66
2022/02/10 11:07:05;;;;;;;4.50;1.50;;;9.90;80.20;;;;;;5042272;28;20048;-67
2022/02/10 11:37:32;;;;;;;5.78;2.70;;;10.60;77.30;;;;;;5034960;28;20040;-67
2022/02/10 11:40:13;;;;;;;7.80;2.50;;;10.70;77.80;;;;;;5034327;28;20132;-66
2022/02/10 11:48:27;;;;;;;7.65;2.90;;;11.10;75.20;;;;;;5105625;28;20112;-67
2022/02/10 14:12:22;;;;;;;7.55;2.00;;;10.00;69.70;;;;;;5087440;28;20033;-63
2022/02/10 14:14:49;;;;;;;4.85;1.60;;;10.00;69.90;;;;;;5087606;28;20039;-63
2022/02/10 14:17:26;;;;;;;4.82;1.73;;;10.00;70.00;;;;;;5089176;28;20081;-63
2022/02/10 14:20:13;;;;;;;7.68;2.22;;;10.00;70.20;;;;;;5087886;28;20635;-64
2022/02/10 14:22:51;;;;;;;7.40;1.92;;;10.00;70.30;;;;;;5091303;28;20043;-64
2022/02/10 14:28:01;;;;;;;8.77;2.47;;;9.90;70.10;;;;;;5088171;28;20038;-64
2022/02/10 14:30:28;;;;;;;6.82;1.83;;;10.00;70.10;;;;;;5088974;28;20028;-64
2022/02/10 14:32:56;;;;;;;6.15;1.77;;;9.90;70.30;;;;;;5088230;28;20123;-64
2022/02/10 14:35:29;;;;;;;5.53;1.50;;;9.90;70.00;;;;;;5090689;28;20024;-66
2022/02/10 16:18:45;;;;;;;4.03;1.33;;;9.30;68.00;;;;;;5083487;28;20043;-66
2022/02/10 16:21:12;;;;;;;6.05;1.30;;;9.20;67.70;;;;;;5085122;28;20028;-66
2022/02/10 16:23:38;;;;;;;9.13;1.50;;;9.20;67.40;;;;;;5078648;28;20148;-66
2022/02/10 16:26:14;;;;;;;5.45;1.23;;;9.20;67.10;;;;;;5085781;28;20513;-66
2022/02/10 16:28:41;;;;;;;5.10;1.27;;;9.20;67.00;;;;;;5082747;28;20024;-67
2022/02/10 16:31:11;;;;;;;6.85;1.42;;;9.20;67.10;;;;;;5081436;28;20395;-66
2022/02/10 16:33:38;;;;;;;8.00;1.90;;;9.20;67.10;;;;;;5080304;28;20069;-66
2022/02/10 16:36:05;;;;;;;6.40;1.70;;;9.20;66.70;;;;;;5084431;28;20483;-66
2022/02/10 16:38:32;;;;;;;6.80;2.00;;;9.20;66.70;;;;;;5089613;28;20020;-66
2022/02/10 16:40:58;;;;;;;5.05;1.50;;;9.20;66.20;;;;;;5090229;28;20047;-67
2022/02/10 16:43:25;;;;;;;6.97;1.58;;;9.10;65.90;;;;;;5087517;28;20043;-67
2022/02/10 16:45:51;;;;;;;5.75;1.77;;;9.10;65.90;;;;;;5091144;28;20482;-66
2022/02/10 16:48:17;;;;;;;3.90;1.40;;;9.00;65.60;;;;;;5083269;28;20077;-67
2022/02/10 16:50:44;;;;;;;6.80;1.30;;;9.00;65.70;;;;;;5083192;28;20028;-67
2022/02/10 16:53:15;;;;;;;8.40;1.30;;;9.00;65.50;;;;;;5080520;28;20066;-66
2022/02/10 16:58:20;;;;;;;9.27;1.45;;;8.90;65.20;;;;;;5088412;28;20339;-67
2022/02/10 17:01:09;;;;;;;6.88;1.35;;;8.90;65.60;;;;;;5077664;28;20471;-67
2022/02/10 17:17:55;;;;;;;6.65;1.95;;;9.00;66.20;;;;;;5079903;28;20046;-67
2022/02/10 17:21:13;;;;;;;8.82;1.75;;;9.00;66.30;;;;;;5077875;28;20478;-67
2022/02/10 17:25:49;;;;;;;5.03;1.23;;;9.00;66.50;;;;;;5085829;28;20035;-67
2022/02/10 17:28:15;;;;;;;5.32;1.63;;;9.00;66.50;;;;;;5079508;28;20033;-67
2022/02/10 17:31:03;;;;;;;5.80;1.35;;;9.00;66.60;;;;;;5078835;28;20031;-67
2022/02/10 17:33:52;;;;;;;6.82;1.60;;;9.00;66.80;;;;;;5081059;28;20044;-66
2022/02/10 17:36:33;;;;;;;4.40;1.52;;;9.00;66.70;;;;;;5072099;28;20047;-67
2022/02/10 17:44:18;;;;;;;9.38;1.48;;;8.90;66.90;;;;;;5079816;28;20036;-67
2022/02/10 17:52:16;;;;;;;7.65;2.20;;;8.80;66.60;;;;;;5086981;28;20043;-67
2022/02/10 17:54:44;;;;;;;4.75;1.27;;;8.80;66.50;;;;;;5086250;28;20036;-65
2022/02/10 17:57:10;;;;;;;7.75;1.83;;;8.80;66.70;;;;;;5081619;28;20108;-65
2022/02/10 17:59:36;;;;;;;5.60;2.08;;;8.80;66.50;;;;;;5102676;28;20107;-65
2022/02/10 18:02:02;;;;;;;7.07;1.40;;;8.80;66.60;;;;;;5077270;28;20174;-65
2022/02/10 18:04:29;;;;;;;7.05;1.35;;;8.80;66.50;;;;;;5077416;28;20082;-65
2022/02/10 18:06:57;;;;;;;10.65;1.55;;;8.80;66.40;;;;;;5077913;28;20533;-65
2022/02/10 18:19:44;;;;;;;7.05;1.95;;;8.70;66.90;;;;;;5079327;28;20128;-64
2022/02/10 18:24:57;;;;;;;3.70;1.30;;;8.70;67.10;;;;;;5079513;28;20440;-67
2022/02/10 19:08:46;;;;;;;8.10;2.22;;;8.50;68.40;;;;;;5086293;28;20410;-64
2022/02/10 19:10:26;;;;;;;9.70;2.13;;;8.50;68.80;;;;;;5070953;28;20033;-64
2022/02/10 19:12:57;;;;;;;6.00;1.85;;;8.50;69.00;;;;;;5084908;28;20043;-64
2022/02/10 19:15:32;;;;;;;9.18;2.22;;;8.50;69.20;;;;;;5086908;28;20043;-64
2022/02/10 19:18:09;;;;;;;6.10;2.75;;;8.50;69.10;;;;;;5083404;28;20513;-65
2022/02/10 19:20:36;;;;;;;8.68;2.15;;;8.40;69.00;;;;;;5080739;28;20032;-65
2022/02/10 19:23:03;;;;;;;6.07;2.20;;;8.40;69.10;;;;;;5074951;28;20320;-64
2022/02/10 19:25:30;;;;;;;9.98;2.83;;;8.30;68.90;;;;;;5086320;28;20475;-64
2022/02/10 19:27:56;;;;;;;10.60;2.88;;;8.30;69.10;;;;;;5087898;28;20043;-64
2022/02/10 19:30:24;;;;;;;6.32;2.03;;;8.30;69.10;;;;;;5080852;28;20024;-64
2022/02/10 19:32:55;;;;;;;7.05;2.08;;;8.30;69.20;;;;;;5100874;28;20673;-65
2022/02/10 19:35:23;;;;;;;7.18;2.05;;;8.30;69.30;;;;;;5086370;28;20062;-64
2022/02/10 19:37:55;;;;;;;7.97;1.80;;;8.20;69.20;;;;;;5089822;28;20061;-64
2022/02/10 19:40:21;;;;;;;7.32;1.75;;;8.20;69.30;;;;;;5084803;28;20497;-64
2022/02/10 19:42:48;;;;;;;7.75;2.13;;;8.20;69.30;;;;;;5088508;28;20551;-64
2022/02/10 19:45:14;;;;;;;7.95;1.70;;;8.10;69.40;;;;;;5087690;28;20062;-65
2022/02/10 19:47:40;;;;;;;8.07;2.08;;;8.10;69.50;;;;;;5082146;28;20021;-64
2022/02/10 19:50:12;;;;;;;6.43;1.92;;;8.00;69.50;;;;;;5088629;28;20031;-64
2022/02/10 19:52:40;;;;;;;7.28;1.90;;;8.00;69.70;;;;;;5086350;28;20157;-64
2022/02/10 19:55:09;;;;;;;6.72;2.15;;;8.00;69.90;;;;;;5087157;28;20081;-65
2022/02/10 19:57:38;;;;;;;8.52;1.98;;;8.00;69.80;;;;;;5077680;28;20386;-64
2022/02/10 20:00:09;;;;;;;6.10;1.83;;;7.90;69.90;;;;;;5079935;28;20407;-64
2022/02/10 20:02:35;;;;;;;6.40;1.58;;;7.90;70.00;;;;;;5085584;28;20527;-64
2022/02/10 20:05:03;;;;;;;7.45;1.70;;;8.00;70.00;;;;;;5087480;28;20028;-64
2022/02/10 20:07:29;;;;;;;9.00;1.70;;;8.00;69.90;;;;;;5087922;28;20432;-64
2022/02/10 20:09:55;;;;;;;6.85;2.03;;;7.90;69.80;;;;;;5087915;28;20047;-64
2022/02/10 20:12:21;;;;;;;9.73;1.73;;;7.90;69.90;;;;;;5072719;28;20509;-65
2022/02/10 20:14:51;;;;;;;9.18;1.75;;;7.90;70.00;;;;;;5091550;28;20441;-64
2022/02/10 20:17:17;;;;;;;5.50;1.70;;;7.90;70.00;;;;;;5090957;28;20111;-64
2022/02/10 20:19:43;;;;;;;6.82;2.17;;;7.90;70.00;;;;;;5090705;28;20063;-64
2022/02/10 20:22:12;;;;;;;6.90;2.03;;;7.90;70.10;;;;;;5082865;28;20521;-64
2022/02/10 20:24:38;;;;;;;12.00;1.85;;;7.90;70.10;;;;;;5083709;28;20375;-64
2022/02/10 20:27:05;;;;;;;8.90;2.20;;;7.80;70.20;;;;;;5084195;28;20032;-64
2022/02/10 20:29:30;;;;;;;6.93;2.10;;;7.80;70.40;;;;;;5079086;28;20020;-64
2022/02/10 20:31:56;;;;;;;11.98;2.33;;;7.80;70.50;;;;;;5082152;28;20093;-64
2022/02/10 20:34:23;;;;;;;8.60;2.50;;;7.80;70.50;;;;;;5073333;28;20060;-64
2022/02/10 20:36:49;;;;;;;10.77;3.28;;;7.80;70.60;;;;;;5083326;28;20091;-64
2022/02/10 20:39:22;;;;;;;8.30;2.72;;;7.80;70.70;;;;;;5090404;28;20506;-64
2022/02/10 20:41:51;;;;;;;8.15;2.58;;;7.80;70.80;;;;;;5090393;28;20035;-64
2022/02/10 20:44:17;;;;;;;7.65;2.40;;;7.80;71.00;;;;;;5088583;28;20409;-64
2022/02/10 20:46:44;;;;;;;8.93;2.42;;;7.80;71.10;;;;;;5079765;28;20536;-64
2022/02/10 20:49:16;;;;;;;8.65;2.40;;;7.80;71.10;;;;;;5086545;28;20111;-64
2022/02/10 20:51:49;;;;;;;4.93;2.00;;;7.80;71.20;;;;;;5079476;28;20550;-64
2022/02/10 20:54:15;;;;;;;8.20;2.35;;;7.70;71.20;;;;;;5075026;28;20432;-65
2022/02/10 20:56:40;;;;;;;7.40;2.42;;;7.70;71.40;;;;;;5089224;28;20028;-64
2022/02/10 20:59:18;;;;;;;7.15;2.47;;;7.70;71.60;;;;;;5081489;28;20037;-64
2022/02/10 21:01:47;;;;;;;9.18;2.70;;;7.70;71.90;;;;;;5078105;28;20035;-64
2022/02/10 21:04:13;;;;;;;10.45;3.22;;;7.70;72.10;;;;;;5085966;28;20070;-64
2022/02/10 21:09:14;;;;;;;10.43;3.63;;;7.60;72.50;;;;;;5081756;28;20393;-65
2022/02/10 21:11:41;;;;;;;6.45;3.17;;;7.60;72.70;;;;;;5079223;28;20074;-64
2022/02/10 21:14:13;;;;;;;10.55;3.40;;;7.60;72.70;;;;;;5078476;28;20044;-65
2022/02/10 21:16:42;;;;;;;;;;;7.60;72.60;;;;;;5088000;28;20046;-65
2022/02/10 21:19:10;;;;;;;14.35;4.05;;;7.60;72.60;;;;;;5077828;28;19912;-64
2022/02/10 21:21:35;;;;;;;15.45;4.00;;;7.50;72.70;;;;;;5084438;28;20107;-65
2022/02/10 21:24:07;;;;;;;9.65;3.05;;;7.50;72.70;;;;;;5081532;28;20565;-64
2022/02/10 21:26:42;;;;;;;10.88;3.38;;;7.40;72.80;;;;;;5087291;28;20025;-64
2022/02/10 21:29:08;;;;;;;15.05;3.75;;;7.40;73.00;;;;;;5085188;28;20144;-64
2022/02/10 21:31:53;;;;;;;9.35;3.42;;;7.40;73.00;;;;;;5078952;28;20036;-64
2022/02/10 21:34:26;;;;;;;8.15;3.10;;;7.40;73.10;;;;;;5073809;28;20493;-64
2022/02/10 21:39:33;;;;;;;10.57;3.85;;;7.40;73.30;;;;;;5089848;28;20089;-64
2022/02/10 21:43:14;;;;;;;8.40;2.95;;;7.40;73.30;;;;;;5077987;28;20032;-64
2022/02/10 21:56:04;;;;;;;8.85;3.40;;;7.30;73.60;;;;;;5083755;28;20036;-64
2022/02/10 22:02:20;;;;;;;7.60;3.25;;;7.30;74.00;;;;;;5091960;28;20089;-64
2022/02/10 22:19:46;;;;;;;9.30;3.45;;;7.10;76.00;;;;;;5097524;28;20127;-64
2022/02/10 22:22:19;;;;;;;10.70;3.70;;;7.00;76.20;;;;;;5094467;28;20054;-64
2022/02/10 22:24:45;;;;;;;7.60;2.92;;;7.00;76.30;;;;;;5110080;28;20019;-64
2022/02/10 22:27:10;;;;;;;10.73;3.70;;;7.00;76.40;;;;;;5089697;28;20081;-64
2022/02/10 22:29:43;;;;;;;15.27;4.85;;;7.00;76.70;;;;;;5105453;28;20023;-66
2022/02/10 22:32:23;;;;;;;7.90;3.20;;;6.90;76.90;;;;;;5106451;28;20050;-66
2022/02/10 22:34:53;;;;;;;7.03;3.38;;;7.00;77.10;;;;;;5090351;28;20032;-66
2022/02/10 22:37:20;;;;;;;10.63;4.20;;;7.00;77.20;;;;;;5095359;28;20043;-66
2022/02/10 22:39:47;;;;;;;8.90;3.40;;;6.90;77.20;;;;;;5105331;28;20054;-66
2022/02/10 22:42:14;;;;;;;11.45;3.50;;;6.90;77.30;;;;;;5100967;28;20043;-67
2022/02/10 22:44:41;;;;;;;12.05;3.38;;;6.90;77.50;;;;;;5103010;28;20046;-66
2022/02/10 22:47:12;;;;;;;7.15;3.47;;;6.80;77.50;;;;;;5110251;28;20020;-67
2022/02/10 22:49:38;;;;;;;10.23;3.80;;;6.80;77.70;;;;;;5109595;28;20508;-67
2022/02/10 22:52:05;;;;;;;11.13;3.90;;;6.80;77.90;;;;;;5106204;28;20055;-67
2022/02/10 22:54:30;;;;;;;8.90;3.20;;;6.70;78.00;;;;;;5098736;28;20432;-66
2022/02/10 22:56:57;;;;;;;12.20;3.45;;;6.70;78.10;;;;;;5100343;28;20057;-66
2022/02/10 22:59:24;;;;;;;8.43;3.33;;;6.60;78.20;;;;;;5089386;28;20084;-66
2022/02/10 23:01:52;;;;;;;11.77;3.35;;;6.60;78.40;;;;;;5101701;28;20036;-66
2022/02/10 23:04:18;;;;;;;9.98;3.33;;;6.60;78.60;;;;;;5111722;28;20039;-66
2022/02/10 23:06:44;;;;;;;9.15;3.63;;;6.50;78.70;;;;;;5111708;28;20071;-64
2022/02/10 23:09:27;;;;;;;12.35;4.10;;;6.50;78.90;;;;;;5105596;28;20106;-63
2022/02/10 23:11:54;;;;;;;9.13;2.97;;;6.50;78.90;;;;;;5070042;28;20388;-64
2022/02/10 23:14:19;;;;;;;8.13;2.90;;;6.50;78.90;;;;;;5069680;28;20154;-63
2022/02/10 23:16:46;;;;;;;6.75;3.08;;;6.50;78.90;;;;;;5092469;28;20118;-64
2022/02/10 23:19:12;;;;;;;6.38;2.67;;;6.50;78.80;;;;;;5096003;28;20111;-64
2022/02/10 23:21:38;;;;;;;9.88;2.95;;;6.50;78.90;;;;;;5090507;28;20482;-64
2022/02/10 23:24:05;;;;;;;8.82;2.90;;;6.40;79.00;;;;;;5091615;28;20039;-64
2022/02/10 23:26:31;;;;;;;13.98;3.13;;;6.40;79.00;;;;;;5100896;28;20020;-64
2022/02/10 23:28:57;;;;;;;13.18;3.10;;;6.40;79.10;;;;;;5089327;28;20016;-64
2022/02/10 23:31:25;;;;;;;10.38;2.90;;;6.40;79.20;;;;;;5089578;28;20165;-64
2022/02/10 23:33:57;;;;;;;13.57;2.80;;;6.40;79.30;;;;;;5096015;28;20038;-64
2022/02/10 23:39:25;;;;;;;10.98;2.80;;;6.30;79.30;;;;;;5089304;28;20181;-64
2022/02/10 23:44:27;;;;;;;10.52;2.08;;;6.30;79.40;;;;;;5089323;28;20063;-64
2022/02/10 23:46:55;;;;;;;14.45;3.55;;;6.20;79.50;;;;;;5089237;28;20443;-64
2022/02/10 23:49:22;;;;;;;9.32;3.35;;;6.20;79.60;;;;;;5088943;28;20020;-64
2022/02/10 23:51:57;;;;;;;8.43;2.78;;;6.20;79.70;;;;;;5077705;28;20507;-64
2022/02/10 23:54:25;;;;;;;11.93;3.45;;;6.20;79.70;;;;;;5102449;28;20027;-64
2022/02/10 23:57:42;;;;;;;9.18;2.83;;;6.20;79.90;;;;;;5108635;28;20567;-64
